Archival Weather

Salzburg

Salzburg, Austria (LOWS)

Report from: Friday, May 26, 2023 4:20 AM CEST
Current time: Sunday, July 14, 2024 3:17 AM CEST

Current weather – Weather history – Daily summaries
Weather forecast

Present weatherMist
Temperature10.0°C (50.0°F)
Wind chill9.1°C (48.5°F)
Dew point9.0°C (48.2°F)
Winds 4 kts (2.1 m/s, 4.6 mph) South-Southeast (160°)
Visibility6.2 mi. (10 km)
Clouds Few clouds 5,000 ft. (1,524 m)
Altimeter30.21 in.Hg (1023 mB)
Relative humidity94 %
Density altitude-765 ft. (-233 m)
Remarks Fully automated report
Flight conditions Visual Meteorological Conditions
Raw dataLOWS 260220Z AUTO 16004KT 9999 4400E BR FEW050 10/09 Q1023
An error has occurred. This application may no longer respond until reloaded. Reload 🗙